Time;durP1;ratioP1;P1;durP2;ratioP2;P2;SDS_P1;SDS_P2;PMS_P1;PMS_P2;Temp;Humidity;BMP_temperature;BMP_pressure;BME280_temperature;BME280_humidity;BME280_pressure;Samples;Min_cycle;Max_cycle;Signal;HPM_P1;HPM_P2
2023/01/26 00:01:30;;;;;;;67.68;26.77;;;;;;;-2.07;100.00;102287.63;5030385;28;20196;-48
2023/01/26 00:03:56;;;;;;;56.72;24.60;;;;;;;-2.00;100.00;102281.75;5027795;28;20262;-44
2023/01/26 00:06:22;;;;;;;61.80;26.05;;;;;;;-1.96;100.00;102277.53;5030466;28;20307;-45
2023/01/26 00:08:56;;;;;;;64.57;24.70;;;;;;;-1.94;100.00;102270.59;5032287;28;20254;-51
2023/01/26 00:11:25;;;;;;;67.72;27.55;;;;;;;-1.90;100.00;102275.13;5029512;28;20226;-46
2023/01/26 00:13:52;;;;;;;70.40;27.70;;;;;;;-1.88;100.00;102282.22;5030473;28;20651;-45
2023/01/26 00:16:18;;;;;;;64.85;28.42;;;;;;;-1.89;100.00;102258.50;5030519;28;20210;-46
2023/01/26 00:18:44;;;;;;;65.72;28.63;;;;;;;-1.84;100.00;102256.94;5029005;28;20195;-44
2023/01/26 00:21:15;;;;;;;70.25;27.42;;;;;;;-1.86;100.00;102255.97;5029934;28;20207;-45
2023/01/26 00:23:41;;;;;;;60.95;26.27;;;;;;;-1.82;100.00;102254.38;5031257;28;20191;-47
2023/01/26 00:26:13;;;;;;;65.93;27.05;;;;;;;-1.77;100.00;102255.41;5030201;28;20195;-49
2023/01/26 00:28:39;;;;;;;61.88;25.20;;;;;;;-1.86;100.00;102255.97;5029845;28;20175;-49
2023/01/26 00:31:18;;;;;;;64.25;26.38;;;;;;;-1.89;100.00;102250.63;5015206;28;20662;-48
2023/01/26 00:33:43;;;;;;;64.68;26.08;;;;;;;-1.85;100.00;102247.28;5030145;28;20531;-48
2023/01/26 00:36:10;;;;;;;68.40;26.52;;;;;;;-1.84;100.00;102237.66;5028554;28;20280;-45
2023/01/26 00:38:36;;;;;;;66.75;27.85;;;;;;;-1.88;100.00;102234.03;5030106;28;20223;-46
2023/01/26 00:41:02;;;;;;;67.65;25.95;;;;;;;-1.91;100.00;102220.78;5029854;28;20632;-47
2023/01/26 00:43:27;;;;;;;65.78;26.15;;;;;;;-1.89;100.00;102225.25;5029839;28;20207;-49
2023/01/26 00:45:53;;;;;;;63.90;26.55;;;;;;;-1.83;100.00;102229.84;5030069;28;20635;-47
2023/01/26 00:48:18;;;;;;;70.82;27.40;;;;;;;-1.91;100.00;102226.03;5029785;28;20192;-46
2023/01/26 00:50:44;;;;;;;70.93;26.80;;;;;;;-1.79;100.00;102239.63;5028167;28;20164;-47
2023/01/26 00:53:10;;;;;;;66.97;26.10;;;;;;;-1.86;100.00;102234.97;5029928;28;20199;-52
2023/01/26 00:55:36;;;;;;;70.25;28.25;;;;;;;-1.84;100.00;102233.28;5030643;28;20184;-44
2023/01/26 00:58:04;;;;;;;66.90;26.67;;;;;;;-1.82;100.00;102223.72;5028107;28;20796;-44
2023/01/26 01:00:31;;;;;;;65.32;26.27;;;;;;;-1.80;100.00;102218.53;5027834;28;20208;-48
2023/01/26 01:02:57;;;;;;;61.90;25.13;;;;;;;-1.83;100.00;102221.06;5029768;28;20172;-50
2023/01/26 01:05:24;;;;;;;65.05;25.85;;;;;;;-1.82;100.00;102228.97;5026498;28;20193;-44
2023/01/26 01:07:50;;;;;;;63.55;25.27;;;;;;;-1.84;100.00;102228.03;5029442;28;20195;-48
2023/01/26 01:10:15;;;;;;;66.13;27.13;;;;;;;-1.76;100.00;102230.94;5028266;28;20191;-50
2023/01/26 01:12:41;;;;;;;61.47;25.60;;;;;;;-1.76;100.00;102236.19;5029163;28;20674;-45
2023/01/26 01:15:07;;;;;;;67.25;26.48;;;;;;;-1.72;100.00;102245.97;5028551;28;20648;-48
2023/01/26 01:17:35;;;;;;;60.55;25.02;;;;;;;-1.71;100.00;102240.75;5028680;28;20550;-48
2023/01/26 01:20:04;;;;;;;60.75;25.13;;;;;;;-1.73;100.00;102247.72;5028729;28;20249;-48
2023/01/26 01:22:31;;;;;;;68.00;26.67;;;;;;;-1.69;100.00;102244.34;5029179;28;20230;-46
2023/01/26 01:24:57;;;;;;;59.08;25.35;;;;;;;-1.70;100.00;102249.56;5028544;28;20184;-46
2023/01/26 01:27:22;;;;;;;62.92;24.70;;;;;;;-1.74;100.00;102240.66;5036128;28;20600;-48
2023/01/26 01:29:51;;;;;;;60.05;24.77;;;;;;;-1.69;100.00;102239.06;5032045;28;20241;-46
2023/01/26 01:32:17;;;;;;;56.47;23.35;;;;;;;-1.69;100.00;102246.97;5027496;28;20548;-49
2023/01/26 01:34:48;;;;;;;61.80;24.42;;;;;;;-1.67;100.00;102242.66;5029059;28;20251;-47
2023/01/26 01:37:15;;;;;;;60.40;23.58;;;;;;;-1.66;100.00;102233.06;5029054;28;20606;-49
2023/01/26 01:39:40;;;;;;;59.60;23.55;;;;;;;-1.68;100.00;102229.50;5027846;28;20218;-44
2023/01/26 01:42:06;;;;;;;54.72;22.42;;;;;;;-1.58;100.00;102222.78;5025640;28;20172;-45
2023/01/26 01:44:36;;;;;;;54.80;23.02;;;;;;;-1.53;100.00;102223.84;5028763;28;20230;-48
2023/01/26 01:47:02;;;;;;;49.35;22.33;;;;;;;-1.56;100.00;102229.00;5024896;28;20319;-48
2023/01/26 01:49:37;;;;;;;53.22;22.27;;;;;;;-1.60;100.00;102229.72;5029078;28;20207;-46
2023/01/26 01:52:08;;;;;;;52.13;22.95;;;;;;;-1.60;100.00;102233.25;5028668;28;20221;-48
2023/01/26 01:54:47;;;;;;;50.10;22.02;;;;;;;-1.68;100.00;102218.97;5030470;28;20182;-50
2023/01/26 01:57:17;;;;;;;52.22;21.63;;;;;;;-1.68;100.00;102225.13;5029312;28;20200;-45
2023/01/26 01:59:48;;;;;;;49.13;20.60;;;;;;;-1.67;100.00;102232.16;5028834;28;20217;-46
2023/01/26 02:02:14;;;;;;;48.95;20.33;;;;;;;-1.68;100.00;102216.34;5027821;28;20234;-50
2023/01/26 02:04:41;;;;;;;47.67;20.73;;;;;;;-1.55;100.00;102225.50;5032910;28;20176;-46
2023/01/26 02:07:06;;;;;;;48.60;20.73;;;;;;;-1.64;100.00;102218.25;5030528;28;20226;-48
2023/01/26 02:12:31;;;;;;;42.95;19.83;;;;;;;-1.61;100.00;102209.56;5028705;28;20193;-45
2023/01/26 02:14:57;;;;;;;47.03;20.65;;;;;;;-1.62;100.00;102213.91;5026640;28;20213;-46
2023/01/26 02:17:23;;;;;;;51.72;21.35;;;;;;;-1.59;100.00;102205.25;5032355;28;20208;-48
2023/01/26 02:20:18;;;;;;;47.95;19.58;;;;;;;-1.56;100.00;102203.59;5031714;28;20206;-50
2023/01/26 02:23:09;;;;;;;47.75;20.25;;;;;;;-1.60;100.00;102199.09;5033888;28;20195;-48
2023/01/26 02:25:51;;;;;;;46.22;20.10;;;;;;;-1.57;100.00;102206.22;5032965;28;20233;-48
2023/01/26 02:28:21;;;;;;;41.78;19.52;;;;;;;-1.54;100.00;102204.56;5030971;28;20184;-48
2023/01/26 02:30:48;;;;;;;46.45;20.30;;;;;;;-1.58;100.00;102200.03;5031984;28;20176;-48
2023/01/26 02:33:18;;;;;;;43.15;18.92;;;;;;;-1.50;100.00;102198.56;5029763;28;20570;-48
2023/01/26 02:35:44;;;;;;;48.35;20.05;;;;;;;-1.45;100.00;102204.84;5033000;28;20176;-48
2023/01/26 02:38:10;;;;;;;45.05;19.13;;;;;;;-1.36;100.00;102201.63;5038512;28;20224;-49
2023/01/26 02:40:49;;;;;;;43.60;19.45;;;;;;;-1.40;100.00;102212.91;5031673;28;20214;-49
2023/01/26 02:43:15;;;;;;;42.00;18.90;;;;;;;-1.45;100.00;102207.47;5030442;28;20176;-48
2023/01/26 02:45:41;;;;;;;44.08;17.63;;;;;;;-1.47;100.00;102203.91;5031338;28;20568;-48
2023/01/26 02:48:07;;;;;;;40.17;17.60;;;;;;;-1.46;100.00;102202.19;5031824;28;20196;-48
2023/01/26 02:50:33;;;;;;;40.25;17.00;;;;;;;-1.37;100.00;102202.50;5030901;28;20187;-47
2023/01/26 02:53:00;;;;;;;42.38;18.88;;;;;;;-1.33;100.00;102193.88;5030433;28;20184;-49
2023/01/26 02:55:26;;;;;;;43.60;18.10;;;;;;;-1.27;100.00;102203.66;5030835;28;20195;-50
2023/01/26 02:58:03;;;;;;;41.72;17.90;;;;;;;-1.31;100.00;102193.94;5031501;28;20675;-49
2023/01/26 03:00:35;;;;;;;33.67;16.05;;;;;;;-1.39;100.00;102198.03;5029542;28;20281;-47
2023/01/26 03:03:11;;;;;;;36.97;16.23;;;;;;;-1.33;100.00;102199.13;5034304;28;20599;-49
2023/01/26 03:05:36;;;;;;;34.55;15.50;;;;;;;-1.29;100.00;102192.22;5032190;28;20610;-49
2023/01/26 03:08:04;;;;;;;31.27;15.13;;;;;;;-1.33;100.00;102185.97;5030157;28;20223;-49
2023/01/26 03:10:34;;;;;;;31.13;14.93;;;;;;;-1.29;100.00;102187.88;5029889;28;20176;-50
2023/01/26 03:12:59;;;;;;;30.67;14.85;;;;;;;-1.28;100.00;102180.88;5031651;28;20233;-47
2023/01/26 03:15:51;;;;;;;30.40;14.85;;;;;;;-1.29;100.00;102176.44;5036047;28;20175;-47
2023/01/26 03:29:25;;;;;;;24.95;12.85;;;;;;;-1.27;100.00;102178.28;5045691;28;20172;-49
2023/01/26 03:31:53;;;;;;;27.83;12.95;;;;;;;-1.23;100.00;102171.38;5029380;28;20214;-49
2023/01/26 03:34:20;;;;;;;28.48;12.98;;;;;;;-1.24;100.00;102185.38;5031993;28;20587;-48
2023/01/26 03:36:47;;;;;;;26.88;13.70;;;;;;;-1.22;100.00;102180.16;5026247;28;20278;-48
2023/01/26 03:41:06;;;;;;;27.17;11.85;;;;;;;-1.24;100.00;102174.88;5018034;28;20604;-50
2023/01/26 03:58:29;;;;;;;24.50;11.40;;;;;;;-1.29;100.00;102163.28;5044850;28;20184;-51
2023/01/26 04:00:56;;;;;;;22.92;12.35;;;;;;;-1.26;100.00;102173.91;5030049;28;20204;-48
2023/01/26 04:08:51;;;;;;;23.75;12.55;;;;;;;-1.27;100.00;102162.53;5045125;28;20212;-50
2023/01/26 04:11:16;;;;;;;26.17;12.60;;;;;;;-1.25;100.00;102168.72;5033936;28;20281;-49
2023/01/26 04:22:00;;;;;;;26.00;13.27;;;;;;;-1.14;100.00;102142.72;5035287;28;20191;-47
2023/01/26 04:24:26;;;;;;;31.55;14.02;;;;;;;-1.13;100.00;102139.28;5027983;28;20196;-48
2023/01/26 04:26:55;;;;;;;26.58;13.85;;;;;;;-1.15;100.00;102147.97;5025879;28;20189;-51
2023/01/26 04:29:32;;;;;;;29.67;14.05;;;;;;;-0.99;100.00;102149.31;5028660;28;20275;-48
2023/01/26 04:31:58;;;;;;;27.73;13.32;;;;;;;-1.10;100.00;102146.34;5032167;28;20637;-47
2023/01/26 04:34:24;;;;;;;25.20;13.35;;;;;;;-1.13;100.00;102141.03;5028735;28;20555;-48
2023/01/26 04:36:50;;;;;;;27.08;13.57;;;;;;;-1.08;100.00;102142.94;5029539;28;20246;-51
2023/01/26 04:39:18;;;;;;;30.52;14.70;;;;;;;-1.09;100.00;102142.91;5028542;28;20219;-47
2023/01/26 04:41:47;;;;;;;28.05;13.90;;;;;;;-1.07;100.00;102138.59;5025698;28;20208;-47
2023/01/26 04:44:15;;;;;;;27.33;14.30;;;;;;;-1.08;100.00;102134.16;5028453;28;20179;-50
2023/01/26 04:46:41;;;;;;;29.90;13.95;;;;;;;-1.09;100.00;102138.53;5014894;28;20232;-47
2023/01/26 04:49:09;;;;;;;30.70;14.15;;;;;;;-1.07;100.00;102141.22;5028259;28;20184;-46
2023/01/26 04:51:35;;;;;;;29.15;14.55;;;;;;;-1.08;100.00;102137.66;5027642;28;20194;-48
2023/01/26 04:54:01;;;;;;;23.88;12.55;;;;;;;-1.06;100.00;102140.34;5029010;28;20585;-48
2023/01/26 04:56:32;;;;;;;31.02;14.05;;;;;;;-1.05;100.00;102128.97;5028370;28;20213;-46
2023/01/26 04:59:01;;;;;;;29.38;14.70;;;;;;;-0.99;100.00;102128.28;5026604;28;20716;-48
2023/01/26 05:01:27;;;;;;;29.58;13.82;;;;;;;-1.01;100.00;102130.84;5027695;28;20215;-46
2023/01/26 05:03:52;;;;;;;29.30;15.15;;;;;;;-0.97;100.00;102130.09;5029258;28;20199;-46
2023/01/26 05:06:19;;;;;;;27.90;13.23;;;;;;;-1.04;100.00;102128.13;5030371;28;20207;-46
2023/01/26 05:08:46;;;;;;;25.52;12.88;;;;;;;-1.00;100.00;102126.50;5028256;28;20215;-47
2023/01/26 05:11:12;;;;;;;27.10;13.27;;;;;;;-0.93;100.00;102129.34;5027571;28;20211;-47
2023/01/26 05:14:04;;;;;;;25.55;12.90;;;;;;;-1.00;100.00;102132.66;5029761;28;20206;-46
2023/01/26 05:16:45;;;;;;;25.25;12.90;;;;;;;-0.95;100.00;102140.69;5016880;28;20204;-48
2023/01/26 05:19:41;;;;;;;24.92;12.98;;;;;;;-0.87;100.00;102129.53;5027880;28;20199;-47
2023/01/26 05:22:29;;;;;;;25.30;13.98;;;;;;;-0.93;100.00;102125.84;5019942;28;20195;-47
2023/01/26 05:25:21;;;;;;;26.05;12.95;;;;;;;-0.97;100.00;102126.59;5012072;28;20192;-46
2023/01/26 05:28:01;;;;;;;26.90;12.80;;;;;;;-0.91;100.00;102127.66;5027617;28;20204;-47
2023/01/26 05:30:26;;;;;;;28.92;13.35;;;;;;;-0.89;100.00;102125.97;5028424;28;20179;-48
2023/01/26 05:32:53;;;;;;;25.40;12.13;;;;;;;-0.90;100.00;102131.16;5032262;28;20269;-46
2023/01/26 05:35:20;;;;;;;25.10;13.27;;;;;;;-0.91;100.00;102132.03;5028768;28;20168;-48
2023/01/26 05:37:45;;;;;;;26.60;14.15;;;;;;;-0.88;100.00;102126.84;5032002;28;20299;-46
2023/01/26 05:40:12;;;;;;;27.92;13.38;;;;;;;-0.92;100.00;102135.50;5025086;28;20214;-43
2023/01/26 05:42:41;;;;;;;28.42;14.00;;;;;;;-0.89;100.00;102140.88;5027796;28;20184;-50
2023/01/26 05:45:16;;;;;;;27.33;14.38;;;;;;;-0.88;100.00;102146.16;5031790;28;20203;-47
2023/01/26 05:47:44;;;;;;;26.92;13.30;;;;;;;-0.87;100.00;102134.81;5030114;28;20572;-49
2023/01/26 05:50:10;;;;;;;28.10;13.75;;;;;;;-0.85;100.00;102135.75;5029607;28;20664;-50
2023/01/26 05:52:38;;;;;;;27.00;13.60;;;;;;;-0.81;100.00;102136.69;5029491;28;20188;-50
2023/01/26 05:55:05;;;;;;;27.20;14.30;;;;;;;-0.80;100.00;102143.75;5036330;28;20179;-48
2023/01/26 05:57:32;;;;;;;27.25;13.50;;;;;;;-0.82;100.00;102142.81;5032129;28;20220;-49
2023/01/26 06:00:04;;;;;;;24.48;12.45;;;;;;;-0.88;100.00;102142.63;5028050;28;20200;-50
2023/01/26 06:02:39;;;;;;;23.90;12.50;;;;;;;-0.86;100.00;102149.72;5032331;28;20194;-51
2023/01/26 06:05:07;;;;;;;25.73;13.32;;;;;;;-0.81;100.00;102143.72;5032905;28;20622;-49
2023/01/26 06:07:33;;;;;;;26.80;14.02;;;;;;;-0.80;100.00;102151.66;5031628;28;20239;-50
2023/01/26 06:10:16;;;;;;;24.90;12.90;;;;;;;-0.81;100.00;102151.59;5029873;28;20207;-51
2023/01/26 06:13:04;;;;;;;27.02;13.48;;;;;;;-0.81;100.00;102149.84;5029884;28;20196;-50
2023/01/26 06:15:50;;;;;;;23.00;12.73;;;;;;;-0.69;100.00;102154.59;5032044;28;20646;-50
2023/01/26 06:18:18;;;;;;;26.50;13.25;;;;;;;-0.74;100.00;102149.22;5032338;28;20188;-51
2023/01/26 06:20:51;;;;;;;26.63;12.68;;;;;;;-0.76;100.00;102150.91;5034296;28;20204;-50
2023/01/26 06:23:16;;;;;;;23.00;12.43;;;;;;;-0.77;100.00;102148.22;5031013;28;20607;-48
2023/01/26 06:25:43;;;;;;;24.98;13.55;;;;;;;-0.76;100.00;102150.03;5033146;28;20219;-52
2023/01/26 06:28:09;;;;;;;22.48;11.90;;;;;;;-0.73;100.00;102147.47;5031483;28;20737;-49
2023/01/26 06:30:35;;;;;;;22.77;12.52;;;;;;;-0.69;100.00;102147.59;5030493;28;20452;-52
2023/01/26 06:33:05;;;;;;;27.95;13.88;;;;;;;-0.69;100.00;102151.97;5031234;28;20287;-49
2023/01/26 06:35:34;;;;;;;28.58;14.07;;;;;;;-0.67;100.00;102152.91;5031791;28;20168;-50
2023/01/26 06:38:02;;;;;;;25.75;12.70;;;;;;;-0.69;100.00;102157.25;5030888;28;20220;-49
2023/01/26 06:40:27;;;;;;;28.40;13.38;;;;;;;-0.69;100.00;102149.34;5030594;28;20214;-50
2023/01/26 06:42:53;;;;;;;29.75;13.48;;;;;;;-0.73;100.00;102160.63;5031042;28;20289;-49
2023/01/26 06:45:19;;;;;;;26.13;13.88;;;;;;;-0.65;100.00;102167.91;5031531;28;20258;-50
2023/01/26 06:47:50;;;;;;;28.38;13.95;;;;;;;-0.67;100.00;102158.19;5030381;28;20208;-49
2023/01/26 06:50:23;;;;;;;28.90;14.10;;;;;;;-0.60;100.00;102169.78;5029479;28;20588;-47
2023/01/26 06:52:58;;;;;;;30.08;13.98;;;;;;;-0.67;100.00;102153.81;5030242;28;20274;-50
2023/01/26 06:55:48;;;;;;;31.88;14.70;;;;;;;-0.61;100.00;102161.00;5030354;28;20175;-49
2023/01/26 06:58:31;;;;;;;27.10;13.25;;;;;;;-0.59;100.00;102153.13;5030464;28;20192;-49
2023/01/26 07:01:25;;;;;;;30.58;14.18;;;;;;;-0.60;100.00;102159.25;5029745;28;20270;-48
2023/01/26 07:03:53;;;;;;;37.13;15.73;;;;;;;-0.60;100.00;102153.97;5031731;28;20326;-49
2023/01/26 07:06:18;;;;;;;31.50;14.40;;;;;;;-0.65;100.00;102157.38;5031656;28;20250;-48
2023/01/26 07:08:44;;;;;;;35.45;15.82;;;;;;;-0.59;100.00;102164.56;5031967;28;20176;-49
2023/01/26 07:11:11;;;;;;;31.27;15.40;;;;;;;-0.64;100.00;102159.13;5029781;28;20198;-51
2023/01/26 07:13:37;;;;;;;37.40;15.68;;;;;;;-0.60;100.00;102164.50;5031710;28;20648;-49
2023/01/26 07:16:09;;;;;;;36.38;15.10;;;;;;;-0.57;100.00;102161.97;5031771;28;20499;-50
2023/01/26 07:18:36;;;;;;;29.00;14.82;;;;;;;-0.56;100.00;102162.00;5031542;28;20573;-50
2023/01/26 07:21:09;;;;;;;37.60;16.30;;;;;;;-0.59;100.00;102166.28;5031164;28;20218;-49
2023/01/26 07:23:34;;;;;;;29.50;14.98;;;;;;;-0.54;100.00;102162.06;5026981;28;20196;-52
2023/01/26 07:26:00;;;;;;;36.45;15.55;;;;;;;-0.50;100.00;102183.25;5030594;28;20347;-50
2023/01/26 07:28:26;;;;;;;29.98;14.88;;;;;;;-0.49;100.00;102179.75;5032514;28;20215;-52
2023/01/26 07:30:57;;;;;;;38.45;16.35;;;;;;;-0.50;100.00;102178.00;5031472;28;20658;-50
2023/01/26 07:33:22;;;;;;;36.90;16.17;;;;;;;-0.53;100.00;102180.50;5029690;28;20258;-49
2023/01/26 07:35:51;;;;;;;42.85;16.92;;;;;;;-0.54;100.00;102178.75;5032139;28;20263;-50
2023/01/26 07:38:17;;;;;;;40.80;16.85;;;;;;;-0.48;100.00;102185.91;5029473;28;20192;-47
2023/01/26 07:40:42;;;;;;;40.22;17.42;;;;;;;-0.47;100.00;102191.22;5024704;28;20570;-52
2023/01/26 07:43:08;;;;;;;47.28;17.25;;;;;;;-0.50;100.00;102198.16;5029821;28;20242;-48
2023/01/26 07:45:51;;;;;;;46.13;17.90;;;;;;;-0.49;100.00;102186.78;5027730;28;20194;-48
2023/01/26 07:48:18;;;;;;;62.28;30.40;;;;;;;-0.51;100.00;102196.38;5027095;28;20183;-50
2023/01/26 07:50:46;;;;;;;44.92;17.58;;;;;;;-0.51;100.00;102199.00;5031782;28;20199;-48
2023/01/26 07:53:14;;;;;;;48.35;18.95;;;;;;;-0.48;100.00;102181.56;5029840;28;20203;-50
2023/01/26 07:55:42;;;;;;;44.00;17.98;;;;;;;-0.45;100.00;102181.63;5024744;28;20195;-51
2023/01/26 07:58:09;;;;;;;43.00;18.52;;;;;;;-0.45;100.00;102197.44;5027970;28;20215;-48
2023/01/26 08:00:34;;;;;;;55.53;19.92;;;;;;;-0.44;100.00;102193.97;5028979;28;20200;-49
2023/01/26 08:03:00;;;;;;;48.10;18.30;;;;;;;-0.43;100.00;102201.00;5026660;28;20690;-49
2023/01/26 08:05:26;;;;;;;52.38;18.58;;;;;;;-0.32;100.00;102203.06;5030536;28;20275;-50
2023/01/26 08:07:51;;;;;;;55.70;18.83;;;;;;;-0.42;100.00;102194.91;5027781;28;20266;-48
2023/01/26 08:10:17;;;;;;;52.97;18.52;;;;;;;-0.40;100.00;102192.28;5027255;28;20226;-49
2023/01/26 08:12:42;;;;;;;51.83;18.08;;;;;;;-0.38;100.00;102203.75;5029559;28;20283;-50
2023/01/26 08:15:09;;;;;;;49.47;18.80;;;;;;;-0.31;100.00;102210.97;5027674;28;20192;-48
2023/01/26 08:17:35;;;;;;;55.28;18.65;;;;;;;-0.30;100.00;102199.63;5028453;28;20239;-50
2023/01/26 08:20:01;;;;;;;46.00;18.00;;;;;;;-0.26;100.00;102197.97;5030084;28;20270;-48
2023/01/26 08:22:27;;;;;;;56.65;19.75;;;;;;;-0.26;100.00;102201.50;5024279;28;20203;-48
2023/01/26 08:24:52;;;;;;;46.40;17.95;;;;;;;-0.20;100.00;102208.66;5030150;28;20262;-50
2023/01/26 08:27:18;;;;;;;69.20;19.35;;;;;;;-0.33;100.00;102190.72;5027187;28;20195;-48
2023/01/26 08:29:43;;;;;;;53.97;17.33;;;;;;;-0.21;100.00;102202.50;5023470;28;20207;-49
2023/01/26 08:32:09;;;;;;;49.00;17.98;;;;;;;-0.18;100.00;102192.91;5031339;28;20296;-49
2023/01/26 08:34:35;;;;;;;47.92;17.92;;;;;;;-0.09;100.00;102195.78;5028687;28;20216;-50
2023/01/26 08:37:02;;;;;;;57.42;18.70;;;;;;;-0.14;100.00;102189.50;5026975;28;20639;-51
2023/01/26 08:39:27;;;;;;;44.70;17.52;;;;;;;-0.11;100.00;102198.41;5027950;28;20314;-51
2023/01/26 08:41:54;;;;;;;66.65;19.90;;;;;;;-0.11;100.00;102202.75;5027784;28;20776;-51
2023/01/26 08:44:19;;;;;;;54.45;19.50;;;;;;;-0.06;100.00;102199.41;5029813;28;20188;-52
2023/01/26 08:46:45;;;;;;;65.93;19.55;;;;;;;0.02;100.00;102211.88;5029125;28;20200;-50
2023/01/26 08:49:11;;;;;;;58.10;20.45;;;;;;;0.07;100.00;102220.84;5027635;28;20219;-51
2023/01/26 08:51:36;;;;;;;77.85;21.27;;;;;;;-0.05;100.00;102209.09;5029054;28;20222;-48
2023/01/26 08:54:07;;;;;;;54.30;19.38;;;;;;;0.01;100.00;102212.75;5026682;28;20596;-51
2023/01/26 08:56:32;;;;;;;56.83;19.55;;;;;;;0.10;100.00;102234.09;5029139;28;20214;-49
2023/01/26 08:58:58;;;;;;;57.28;19.80;;;;;;;0.11;100.00;102233.22;5028570;28;20647;-50
2023/01/26 09:01:23;;;;;;;75.97;20.60;;;;;;;0.13;100.00;102228.88;5028583;28;20192;-50
2023/01/26 09:03:51;;;;;;;57.17;20.02;;;;;;;0.12;100.00;102228.00;5027737;28;20207;-50
2023/01/26 09:06:18;;;;;;;58.70;19.45;;;;;;;0.18;100.00;102211.47;5037357;28;20203;-50
2023/01/26 09:08:44;;;;;;;58.50;19.88;;;;;;;0.15;100.00;102232.44;5026894;28;20180;-51
2023/01/26 09:11:09;;;;;;;53.92;18.65;;;;;;;0.24;100.00;102232.72;5028691;28;20182;-49
2023/01/26 09:13:36;;;;;;;72.63;20.23;;;;;;;0.23;100.00;102225.66;5027779;28;20681;-48
2023/01/26 09:16:15;;;;;;;60.67;21.00;;;;;;;0.29;100.00;102225.81;5027841;28;20198;-49
2023/01/26 09:18:40;;;;;;;75.95;20.35;;;;;;;0.18;100.00;102207.09;5026700;28;20192;-50
2023/01/26 09:21:08;;;;;;;75.85;20.98;;;;;;;0.14;100.00;102215.75;5028458;28;20238;-48
2023/01/26 09:23:34;;;;;;;67.43;20.60;;;;;;;0.13;100.00;102213.97;5026805;28;20607;-47
2023/01/26 09:26:01;;;;;;;67.72;21.30;;;;;;;0.15;100.00;102224.53;5042921;28;20510;-51
2023/01/26 09:28:27;;;;;;;91.68;22.20;;;;;;;0.09;100.00;102203.28;5030937;28;20172;-48
2023/01/26 09:30:52;;;;;;;55.35;18.80;;;;;;;0.25;100.00;102220.44;5026251;28;20238;-51
2023/01/26 09:33:20;;;;;;;56.40;20.05;;;;;;;0.29;100.00;102210.00;5029205;28;20589;-50
2023/01/26 09:35:46;;;;;;;44.30;17.23;;;;;;;0.34;100.00;102215.41;5030238;28;20192;-48
2023/01/26 09:38:11;;;;;;;66.03;18.75;;;;;;;0.43;100.00;102214.75;5029077;28;20795;-51
2023/01/26 09:40:55;;;;;;;95.65;19.92;;;;;;;0.32;100.00;102215.34;5029119;28;20663;-45
2023/01/26 09:43:46;;;;;;;64.00;19.63;;;;;;;0.38;100.00;102219.91;5024023;28;20274;-48
2023/01/26 09:46:33;;;;;;;60.92;18.60;;;;;;;0.48;100.00;102229.84;5027403;28;20196;-48
2023/01/26 09:49:11;;;;;;;68.22;19.98;;;;;;;0.43;100.00;102225.28;5028468;28;20233;-48
2023/01/26 09:51:51;;;;;;;69.88;19.67;;;;;;;0.45;100.00;102236.75;5028169;28;20172;-49
2023/01/26 09:54:43;;;;;;;68.07;20.77;;;;;;;0.53;100.00;102227.31;5029046;28;20180;-48
2023/01/26 09:57:16;;;;;;;61.35;20.38;;;;;;;0.48;100.00;102231.56;5030313;28;20203;-48
2023/01/26 09:59:49;;;;;;;61.65;20.05;;;;;;;0.49;100.00;102228.09;5028618;28;20192;-50
2023/01/26 10:02:52;;;;;;;70.78;19.77;;;;;;;0.54;100.00;102219.41;5026493;28;20180;-48
2023/01/26 10:05:43;;;;;;;88.03;20.40;;;;;;;0.50;100.00;102220.19;5028055;28;20179;-47
2023/01/26 10:08:12;;;;;;;60.33;18.60;;;;;;;0.55;100.00;102210.69;5028218;28;20709;-48
2023/01/26 10:10:43;;;;;;;70.85;19.70;;;;;;;0.61;100.00;102213.47;5027013;28;20196;-48
2023/01/26 10:13:13;;;;;;;91.22;19.58;;;;;;;0.58;100.00;102220.41;5028429;28;20271;-48
2023/01/26 10:15:42;;;;;;;64.72;19.25;;;;;;;0.61;100.00;102209.91;5029012;28;20242;-48
2023/01/26 10:18:35;;;;;;;62.15;20.92;;;;;;;0.68;100.00;102218.88;5027561;28;20370;-48
2023/01/26 10:21:05;;;;;;;60.75;19.98;;;;;;;0.73;100.00;102204.97;5027731;28;20819;-49
2023/01/26 10:23:32;;;;;;;83.20;20.67;;;;;;;0.63;100.00;102205.56;5028723;28;20194;-46
2023/01/26 10:26:12;;;;;;;71.40;20.73;;;;;;;0.72;100.00;102207.53;5028984;28;20176;-47
2023/01/26 10:28:40;;;;;;;63.58;19.67;;;;;;;0.79;100.00;102204.22;5027397;28;20191;-46
2023/01/26 10:31:14;;;;;;;60.83;19.95;;;;;;;0.83;100.00;102211.34;5025795;28;20900;-46
2023/01/26 10:33:47;;;;;;;58.55;19.30;;;;;;;0.84;100.00;102210.50;5032523;28;20186;-47
2023/01/26 10:36:13;;;;;;;65.35;19.85;;;;;;;0.91;100.00;102212.41;5032144;28;20231;-46
2023/01/26 10:38:40;;;;;;;67.63;20.42;;;;;;;0.99;100.00;102204.69;5029247;28;20275;-47
2023/01/26 10:41:18;;;;;;;60.83;21.30;;;;;;;1.05;100.00;102204.84;5030761;28;20730;-46
2023/01/26 10:44:02;;;;;;;64.18;21.15;;;;;;;1.12;100.00;102193.56;5030892;28;20199;-46
2023/01/26 10:46:35;;;;;;;59.28;18.77;;;;;;;1.14;100.00;102199.75;5030071;28;20200;-45
2023/01/26 10:49:23;;;;;;;59.08;18.92;;;;;;;1.17;100.00;102189.25;5032549;28;20247;-47
2023/01/26 10:52:08;;;;;;;50.75;18.55;;;;;;;1.22;100.00;102192.00;5030125;28;20204;-45
2023/01/26 10:54:35;;;;;;;55.15;17.73;;;;;;;1.22;100.00;102190.28;5032777;28;20242;-44
2023/01/26 10:57:14;;;;;;;54.38;18.10;;;;;;;1.23;100.00;102188.53;5035788;28;20212;-43
2023/01/26 10:59:53;;;;;;;50.75;18.15;;;;;;;1.22;100.00;102198.19;5032408;28;20642;-44
2023/01/26 11:02:29;;;;;;;51.45;16.83;;;;;;;1.25;100.00;102192.09;5032600;28;20184;-45
2023/01/26 11:05:07;;;;;;;56.03;18.30;;;;;;;1.31;100.00;102191.31;5034883;28;20211;-42
2023/01/26 11:07:38;;;;;;;57.33;17.55;;;;;;;1.29;100.00;102193.03;5031100;28;20207;-45
2023/01/26 11:10:31;;;;;;;48.58;17.35;;;;;;;1.30;100.00;102187.78;5030725;28;20176;-46
2023/01/26 11:13:21;;;;;;;56.90;16.83;;;;;;;1.31;100.00;102188.66;5032545;28;20175;-45
2023/01/26 11:16:23;;;;;;;55.33;16.02;;;;;;;1.37;100.00;102186.16;5040397;28;20638;-43
2023/01/26 11:18:59;;;;;;;52.85;15.98;;;;;;;1.43;100.00;102183.66;5022782;28;20208;-44
2023/01/26 11:21:35;;;;;;;49.13;17.92;;;;;;;1.52;100.00;102181.22;5032032;28;20662;-43
2023/01/26 11:24:46;;;;;;;57.30;17.02;;;;;;;1.63;100.00;102184.97;5031843;28;20636;-44
2023/01/26 11:27:30;;;;;;;50.58;17.27;;;;;;;1.70;100.00;102174.53;5039907;28;20207;-43
2023/01/26 11:30:08;;;;;;;48.63;15.93;;;;;;;1.77;100.00;102185.25;5031844;28;20179;-44
2023/01/26 11:32:55;;;;;;;44.42;16.40;;;;;;;1.91;100.00;102182.88;5031559;28;20179;-45
2023/01/26 11:35:26;;;;;;;48.90;16.13;;;;;;;1.92;100.00;102184.63;5031722;28;20190;-42
2023/01/26 11:38:24;;;;;;;55.72;17.15;;;;;;;1.99;100.00;102185.66;5018471;28;20690;-43
2023/01/26 11:41:23;;;;;;;45.15;15.32;;;;;;;2.02;100.00;102197.19;5031640;28;20231;-45
2023/01/26 11:44:23;;;;;;;37.05;13.48;;;;;;;2.11;100.00;102193.81;5032736;28;20199;-43
2023/01/26 11:46:51;;;;;;;40.22;12.38;;;;;;;2.19;100.00;102181.63;5029939;28;20584;-43
2023/01/26 11:49:39;;;;;;;37.03;12.05;;;;;;;2.29;100.00;102177.38;5030357;28;20598;-42
2023/01/26 11:52:16;;;;;;;42.55;12.43;;;;;;;2.30;100.00;102187.13;5030343;28;20190;-43
2023/01/26 11:54:59;;;;;;;41.25;11.13;;;;;;;2.36;100.00;102181.03;5026639;28;20658;-43
2023/01/26 11:57:40;;;;;;;33.03;9.95;;;;;;;2.42;100.00;102166.16;5026110;28;20573;-43
2023/01/26 12:00:17;;;;;;;42.47;7.95;;;;;;;2.45;100.00;102178.56;5030210;28;20210;-44
2023/01/26 12:02:52;;;;;;;33.28;6.20;;;;;;;2.41;100.00;102177.63;5031256;28;20164;-44
2023/01/26 12:05:36;;;;;;;24.90;5.85;;;;;;;2.53;100.00;102173.38;5035879;28;20190;-42
2023/01/26 12:08:42;;;;;;;27.90;5.30;;;;;;;2.55;100.00;102164.59;5028682;28;20206;-44